sensor_id;sensor_type;location;lat;lon;timestamp;temperature;humidity
47162;DHT22;32921;53.256;8.198;2022-12-18T00:01:00;-3.90;99.90
47162;DHT22;32921;53.256;8.198;2022-12-18T00:03:34;-3.80;99.90
47162;DHT22;32921;53.256;8.198;2022-12-18T00:06:01;-3.80;99.90
47162;DHT22;32921;53.256;8.198;2022-12-18T00:08:27;-3.80;99.90
47162;DHT22;32921;53.256;8.198;2022-12-18T00:10:53;-3.80;99.90
47162;DHT22;32921;53.256;8.198;2022-12-18T00:13:18;-3.80;99.90
47162;DHT22;32921;53.256;8.198;2022-12-18T00:15:44;-3.80;99.90
47162;DHT22;32921;53.256;8.198;2022-12-18T00:18:09;-3.80;99.90
47162;DHT22;32921;53.256;8.198;2022-12-18T00:20:37;-3.90;99.90
47162;DHT22;32921;53.256;8.198;2022-12-18T00:23:02;-3.90;99.90
47162;DHT22;32921;53.256;8.198;2022-12-18T00:25:28;-3.80;99.90
47162;DHT22;32921;53.256;8.198;2022-12-18T00:27:53;-3.90;99.90
47162;DHT22;32921;53.256;8.198;2022-12-18T00:30:19;-3.90;99.90
47162;DHT22;32921;53.256;8.198;2022-12-18T00:32:44;-3.80;99.90
47162;DHT22;32921;53.256;8.198;2022-12-18T00:35:10;-3.80;99.90
47162;DHT22;32921;53.256;8.198;2022-12-18T00:37:36;-3.90;99.90
47162;DHT22;32921;53.256;8.198;2022-12-18T00:40:02;-3.80;99.90
47162;DHT22;32921;53.256;8.198;2022-12-18T00:42:28;-3.90;99.90
47162;DHT22;32921;53.256;8.198;2022-12-18T00:45:12;-3.90;99.90
47162;DHT22;32921;53.256;8.198;2022-12-18T00:47:38;-3.90;99.90
47162;DHT22;32921;53.256;8.198;2022-12-18T00:50:04;-3.90;99.90
47162;DHT22;32921;53.256;8.198;2022-12-18T00:52:30;-3.90;99.90
47162;DHT22;32921;53.256;8.198;2022-12-18T00:54:55;-3.90;99.90
47162;DHT22;32921;53.256;8.198;2022-12-18T00:57:21;-4.00;99.90
47162;DHT22;32921;53.256;8.198;2022-12-18T00:59:46;-4.00;99.90
47162;DHT22;32921;53.256;8.198;2022-12-18T01:02:12;-4.00;99.90
47162;DHT22;32921;53.256;8.198;2022-12-18T01:04:38;-4.00;99.90
47162;DHT22;32921;53.256;8.198;2022-12-18T01:07:03;-4.00;99.90
47162;DHT22;32921;53.256;8.198;2022-12-18T01:09:29;-4.00;99.90
47162;DHT22;32921;53.256;8.198;2022-12-18T01:11:54;-4.10;99.90
47162;DHT22;32921;53.256;8.198;2022-12-18T01:14:20;-4.10;99.90
47162;DHT22;32921;53.256;8.198;2022-12-18T01:16:45;-4.10;99.90
47162;DHT22;32921;53.256;8.198;2022-12-18T01:19:11;-4.30;99.90
47162;DHT22;32921;53.256;8.198;2022-12-18T01:21:36;-4.30;99.90
47162;DHT22;32921;53.256;8.198;2022-12-18T01:24:02;-4.40;99.90
47162;DHT22;32921;53.256;8.198;2022-12-18T01:26:28;-4.40;99.90
47162;DHT22;32921;53.256;8.198;2022-12-18T01:28:56;-4.50;99.90
47162;DHT22;32921;53.256;8.198;2022-12-18T01:31:27;-4.60;99.90
47162;DHT22;32921;53.256;8.198;2022-12-18T01:33:53;-4.60;99.90
47162;DHT22;32921;53.256;8.198;2022-12-18T01:36:21;-4.60;99.90
47162;DHT22;32921;53.256;8.198;2022-12-18T01:38:48;-4.70;99.90
47162;DHT22;32921;53.256;8.198;2022-12-18T01:41:16;-4.80;99.90
47162;DHT22;32921;53.256;8.198;2022-12-18T01:43:54;-4.90;99.90
47162;DHT22;32921;53.256;8.198;2022-12-18T01:46:22;-5.00;99.90
47162;DHT22;32921;53.256;8.198;2022-12-18T01:48:51;-5.10;99.90
47162;DHT22;32921;53.256;8.198;2022-12-18T01:51:17;-5.30;99.90
47162;DHT22;32921;53.256;8.198;2022-12-18T01:53:44;-5.40;99.90
47162;DHT22;32921;53.256;8.198;2022-12-18T01:56:13;-5.50;99.90
47162;DHT22;32921;53.256;8.198;2022-12-18T01:58:54;-5.50;99.90
47162;DHT22;32921;53.256;8.198;2022-12-18T02:01:22;-5.60;99.90
47162;DHT22;32921;53.256;8.198;2022-12-18T02:03:48;-5.60;99.90
47162;DHT22;32921;53.256;8.198;2022-12-18T02:06:55;-5.70;99.90
47162;DHT22;32921;53.256;8.198;2022-12-18T02:09:31;-5.70;99.90
47162;DHT22;32921;53.256;8.198;2022-12-18T02:12:13;-5.80;99.90
47162;DHT22;32921;53.256;8.198;2022-12-18T02:14:45;-5.80;99.90
47162;DHT22;32921;53.256;8.198;2022-12-18T02:17:23;-5.90;99.90
47162;DHT22;32921;53.256;8.198;2022-12-18T02:23:11;-5.90;99.90
47162;DHT22;32921;53.256;8.198;2022-12-18T02:28:25;-6.10;99.90
47162;DHT22;32921;53.256;8.198;2022-12-18T02:30:53;-6.10;99.90
47162;DHT22;32921;53.256;8.198;2022-12-18T02:33:22;-6.10;99.90
47162;DHT22;32921;53.256;8.198;2022-12-18T02:35:50;-6.20;99.90
47162;DHT22;32921;53.256;8.198;2022-12-18T02:38:16;-6.10;99.90
47162;DHT22;32921;53.256;8.198;2022-12-18T02:40:43;-6.10;99.90
47162;DHT22;32921;53.256;8.198;2022-12-18T02:43:12;-6.20;99.90
47162;DHT22;32921;53.256;8.198;2022-12-18T02:45:58;-6.30;99.90
47162;DHT22;32921;53.256;8.198;2022-12-18T02:48:31;-6.20;99.90
47162;DHT22;32921;53.256;8.198;2022-12-18T02:51:21;-6.30;99.90
47162;DHT22;32921;53.256;8.198;2022-12-18T02:53:56;-6.30;99.90
47162;DHT22;32921;53.256;8.198;2022-12-18T02:56:29;-6.40;99.90
47162;DHT22;32921;53.256;8.198;2022-12-18T02:59:11;-6.40;99.90
47162;DHT22;32921;53.256;8.198;2022-12-18T03:01:54;-6.50;99.90
47162;DHT22;32921;53.256;8.198;2022-12-18T03:04:26;-6.50;99.90
47162;DHT22;32921;53.256;8.198;2022-12-18T03:06:57;-6.60;99.90
47162;DHT22;32921;53.256;8.198;2022-12-18T03:09:34;-6.60;99.90
47162;DHT22;32921;53.256;8.198;2022-12-18T03:12:07;-6.50;99.90
47162;DHT22;32921;53.256;8.198;2022-12-18T03:15:03;-6.60;99.90
47162;DHT22;32921;53.256;8.198;2022-12-18T03:17:31;-6.60;99.90
47162;DHT22;32921;53.256;8.198;2022-12-18T03:20:05;-6.70;99.90
47162;DHT22;32921;53.256;8.198;2022-12-18T03:22:33;-6.70;99.90
47162;DHT22;32921;53.256;8.198;2022-12-18T03:25:02;-6.70;99.90
47162;DHT22;32921;53.256;8.198;2022-12-18T03:27:31;-6.80;99.90
47162;DHT22;32921;53.256;8.198;2022-12-18T03:30:07;-6.80;99.90
47162;DHT22;32921;53.256;8.198;2022-12-18T03:32:39;-6.90;99.90
47162;DHT22;32921;53.256;8.198;2022-12-18T03:35:07;-7.00;99.90
47162;DHT22;32921;53.256;8.198;2022-12-18T03:37:33;-7.00;99.90
47162;DHT22;32921;53.256;8.198;2022-12-18T03:39:59;-6.90;99.90
47162;DHT22;32921;53.256;8.198;2022-12-18T03:42:32;-6.80;99.90
47162;DHT22;32921;53.256;8.198;2022-12-18T03:45:09;-6.90;99.90
47162;DHT22;32921;53.256;8.198;2022-12-18T03:50:22;-7.10;99.90
47162;DHT22;32921;53.256;8.198;2022-12-18T03:55:55;-6.90;99.90
47162;DHT22;32921;53.256;8.198;2022-12-18T03:58:24;-7.00;99.90
47162;DHT22;32921;53.256;8.198;2022-12-18T04:00:52;-7.00;99.90
47162;DHT22;32921;53.256;8.198;2022-12-18T04:03:19;-7.00;99.90
47162;DHT22;32921;53.256;8.198;2022-12-18T04:05:46;-7.00;99.90
47162;DHT22;32921;53.256;8.198;2022-12-18T04:08:13;-7.00;99.90
47162;DHT22;32921;53.256;8.198;2022-12-18T04:10:39;-7.00;99.90
47162;DHT22;32921;53.256;8.198;2022-12-18T04:13:05;-7.10;99.90
47162;DHT22;32921;53.256;8.198;2022-12-18T04:15:33;-7.10;99.90
47162;DHT22;32921;53.256;8.198;2022-12-18T04:17:59;-7.10;99.90
47162;DHT22;32921;53.256;8.198;2022-12-18T04:20:25;-7.20;99.90
47162;DHT22;32921;53.256;8.198;2022-12-18T04:22:50;-7.30;99.90
47162;DHT22;32921;53.256;8.198;2022-12-18T04:25:16;-7.20;99.90
47162;DHT22;32921;53.256;8.198;2022-12-18T04:27:41;-7.20;99.90
47162;DHT22;32921;53.256;8.198;2022-12-18T04:30:07;-7.10;99.90
47162;DHT22;32921;53.256;8.198;2022-12-18T04:32:34;-7.10;99.90
47162;DHT22;32921;53.256;8.198;2022-12-18T04:34:59;-7.00;99.90
47162;DHT22;32921;53.256;8.198;2022-12-18T04:37:25;-7.10;99.90
47162;DHT22;32921;53.256;8.198;2022-12-18T04:39:51;-7.30;99.90
47162;DHT22;32921;53.256;8.198;2022-12-18T04:42:16;-7.20;99.90
47162;DHT22;32921;53.256;8.198;2022-12-18T04:44:42;-7.20;99.90
47162;DHT22;32921;53.256;8.198;2022-12-18T04:47:07;-7.30;99.90
47162;DHT22;32921;53.256;8.198;2022-12-18T04:49:33;-7.30;99.90
47162;DHT22;32921;53.256;8.198;2022-12-18T04:51:58;-7.30;99.90
47162;DHT22;32921;53.256;8.198;2022-12-18T04:54:24;-7.30;99.90
47162;DHT22;32921;53.256;8.198;2022-12-18T04:56:49;-7.20;99.90
47162;DHT22;32921;53.256;8.198;2022-12-18T04:59:15;-7.40;99.90
47162;DHT22;32921;53.256;8.198;2022-12-18T05:01:40;-7.40;99.90
47162;DHT22;32921;53.256;8.198;2022-12-18T05:04:06;-7.30;99.90
47162;DHT22;32921;53.256;8.198;2022-12-18T05:06:32;-7.30;99.90
47162;DHT22;32921;53.256;8.198;2022-12-18T05:08:58;-7.30;99.90
47162;DHT22;32921;53.256;8.198;2022-12-18T05:11:23;-7.40;99.90
47162;DHT22;32921;53.256;8.198;2022-12-18T05:13:49;-7.30;99.90
47162;DHT22;32921;53.256;8.198;2022-12-18T05:16:14;-7.30;99.90
47162;DHT22;32921;53.256;8.198;2022-12-18T05:18:40;-7.40;99.90
47162;DHT22;32921;53.256;8.198;2022-12-18T05:21:06;-7.40;99.90
47162;DHT22;32921;53.256;8.198;2022-12-18T05:23:35;-7.50;99.90
47162;DHT22;32921;53.256;8.198;2022-12-18T05:26:03;-7.50;99.90
47162;DHT22;32921;53.256;8.198;2022-12-18T05:28:30;-7.60;99.90
47162;DHT22;32921;53.256;8.198;2022-12-18T05:30:58;-7.50;99.90
47162;DHT22;32921;53.256;8.198;2022-12-18T05:33:25;-7.50;99.90
47162;DHT22;32921;53.256;8.198;2022-12-18T05:35:56;-7.40;99.90
47162;DHT22;32921;53.256;8.198;2022-12-18T05:38:23;-7.40;99.90
47162;DHT22;32921;53.256;8.198;2022-12-18T05:40:50;-7.40;99.90
47162;DHT22;32921;53.256;8.198;2022-12-18T05:43:17;-7.50;99.90
47162;DHT22;32921;53.256;8.198;2022-12-18T05:45:43;-7.30;99.90
47162;DHT22;32921;53.256;8.198;2022-12-18T05:48:09;-7.30;99.90
47162;DHT22;32921;53.256;8.198;2022-12-18T05:50:39;-7.20;99.90
47162;DHT22;32921;53.256;8.198;2022-12-18T05:53:05;-7.20;99.90
47162;DHT22;32921;53.256;8.198;2022-12-18T05:55:35;-7.20;99.90
47162;DHT22;32921;53.256;8.198;2022-12-18T05:58:02;-7.10;99.90
47162;DHT22;32921;53.256;8.198;2022-12-18T06:00:28;-7.10;99.90
47162;DHT22;32921;53.256;8.198;2022-12-18T06:02:54;-7.10;99.90
47162;DHT22;32921;53.256;8.198;2022-12-18T06:05:20;-7.00;99.90
47162;DHT22;32921;53.256;8.198;2022-12-18T06:07:45;-7.00;99.90
47162;DHT22;32921;53.256;8.198;2022-12-18T06:10:11;-7.10;99.90
47162;DHT22;32921;53.256;8.198;2022-12-18T06:12:37;-7.20;99.90
47162;DHT22;32921;53.256;8.198;2022-12-18T06:15:03;-7.20;99.90
47162;DHT22;32921;53.256;8.198;2022-12-18T06:17:32;-7.10;99.90
47162;DHT22;32921;53.256;8.198;2022-12-18T06:19:59;-7.20;99.90
47162;DHT22;32921;53.256;8.198;2022-12-18T06:22:25;-7.20;99.90
47162;DHT22;32921;53.256;8.198;2022-12-18T06:24:50;-7.10;99.90
47162;DHT22;32921;53.256;8.198;2022-12-18T06:27:16;-7.10;99.90
47162;DHT22;32921;53.256;8.198;2022-12-18T06:29:42;-7.10;99.90
47162;DHT22;32921;53.256;8.198;2022-12-18T06:32:07;-7.20;99.90
47162;DHT22;32921;53.256;8.198;2022-12-18T06:34:33;-7.10;99.90
47162;DHT22;32921;53.256;8.198;2022-12-18T06:36:59;-7.30;99.90
47162;DHT22;32921;53.256;8.198;2022-12-18T06:39:27;-7.50;99.90
47162;DHT22;32921;53.256;8.198;2022-12-18T06:41:53;-7.60;99.90
47162;DHT22;32921;53.256;8.198;2022-12-18T06:44:19;-7.50;99.90
47162;DHT22;32921;53.256;8.198;2022-12-18T06:46:44;-7.40;99.90
47162;DHT22;32921;53.256;8.198;2022-12-18T06:49:10;-7.50;99.90
47162;DHT22;32921;53.256;8.198;2022-12-18T06:51:36;-7.40;99.90
47162;DHT22;32921;53.256;8.198;2022-12-18T06:54:01;-7.30;99.90
47162;DHT22;32921;53.256;8.198;2022-12-18T06:56:27;-7.30;99.90
47162;DHT22;32921;53.256;8.198;2022-12-18T06:58:53;-7.20;99.90
47162;DHT22;32921;53.256;8.198;2022-12-18T07:01:19;-7.20;99.90
47162;DHT22;32921;53.256;8.198;2022-12-18T07:03:44;-7.20;99.90
47162;DHT22;32921;53.256;8.198;2022-12-18T07:06:15;-7.20;99.90
47162;DHT22;32921;53.256;8.198;2022-12-18T07:08:40;-7.30;99.90
47162;DHT22;32921;53.256;8.198;2022-12-18T07:11:06;-7.20;99.90
47162;DHT22;32921;53.256;8.198;2022-12-18T07:13:31;-7.20;99.90
47162;DHT22;32921;53.256;8.198;2022-12-18T07:16:12;-7.20;99.90
47162;DHT22;32921;53.256;8.198;2022-12-18T07:18:38;-7.00;99.90
47162;DHT22;32921;53.256;8.198;2022-12-18T07:21:08;-7.00;99.90
47162;DHT22;32921;53.256;8.198;2022-12-18T07:23:34;-7.00;99.90
47162;DHT22;32921;53.256;8.198;2022-12-18T07:26:02;-6.90;99.90
47162;DHT22;32921;53.256;8.198;2022-12-18T07:28:28;-6.90;99.90
47162;DHT22;32921;53.256;8.198;2022-12-18T07:30:53;-6.80;99.90
47162;DHT22;32921;53.256;8.198;2022-12-18T07:33:19;-6.90;99.90
47162;DHT22;32921;53.256;8.198;2022-12-18T07:35:45;-6.90;99.90
47162;DHT22;32921;53.256;8.198;2022-12-18T07:38:10;-7.00;99.90
47162;DHT22;32921;53.256;8.198;2022-12-18T07:40:36;-7.00;99.90
47162;DHT22;32921;53.256;8.198;2022-12-18T07:43:01;-6.90;99.90
47162;DHT22;32921;53.256;8.198;2022-12-18T07:45:27;-6.90;99.90
47162;DHT22;32921;53.256;8.198;2022-12-18T07:47:55;-7.00;99.90
47162;DHT22;32921;53.256;8.198;2022-12-18T07:50:21;-6.90;99.90
47162;DHT22;32921;53.256;8.198;2022-12-18T07:52:46;-6.90;99.90
47162;DHT22;32921;53.256;8.198;2022-12-18T07:55:12;-6.80;99.90
47162;DHT22;32921;53.256;8.198;2022-12-18T07:57:37;-6.70;99.90
47162;DHT22;32921;53.256;8.198;2022-12-18T08:00:03;-6.70;99.90
47162;DHT22;32921;53.256;8.198;2022-12-18T08:02:31;-6.70;99.90
47162;DHT22;32921;53.256;8.198;2022-12-18T08:04:56;-6.60;99.90
47162;DHT22;32921;53.256;8.198;2022-12-18T08:07:22;-6.70;99.90
47162;DHT22;32921;53.256;8.198;2022-12-18T08:09:47;-6.60;99.90
47162;DHT22;32921;53.256;8.198;2022-12-18T08:12:13;-6.50;99.90
47162;DHT22;32921;53.256;8.198;2022-12-18T08:14:38;-6.50;99.90
47162;DHT22;32921;53.256;8.198;2022-12-18T08:17:04;-6.40;99.90
47162;DHT22;32921;53.256;8.198;2022-12-18T08:19:30;-6.40;99.90
47162;DHT22;32921;53.256;8.198;2022-12-18T08:21:55;-6.40;99.90
47162;DHT22;32921;53.256;8.198;2022-12-18T08:24:22;-6.30;99.90
47162;DHT22;32921;53.256;8.198;2022-12-18T08:26:47;-6.20;99.90
47162;DHT22;32921;53.256;8.198;2022-12-18T08:29:13;-6.20;99.90
47162;DHT22;32921;53.256;8.198;2022-12-18T08:31:38;-6.10;99.90
47162;DHT22;32921;53.256;8.198;2022-12-18T08:34:04;-6.10;99.90
47162;DHT22;32921;53.256;8.198;2022-12-18T08:36:30;-6.00;99.90
47162;DHT22;32921;53.256;8.198;2022-12-18T08:38:56;-5.90;99.90
47162;DHT22;32921;53.256;8.198;2022-12-18T08:41:22;-5.80;99.90
47162;DHT22;32921;53.256;8.198;2022-12-18T08:43:47;-5.70;99.90
47162;DHT22;32921;53.256;8.198;2022-12-18T08:46:38;-5.60;99.90
47162;DHT22;32921;53.256;8.198;2022-12-18T08:49:04;-5.50;99.90
47162;DHT22;32921;53.256;8.198;2022-12-18T08:51:30;-5.50;99.90
47162;DHT22;32921;53.256;8.198;2022-12-18T08:53:56;-5.50;99.90
47162;DHT22;32921;53.256;8.198;2022-12-18T08:56:21;-5.40;99.90
47162;DHT22;32921;53.256;8.198;2022-12-18T08:58:47;-5.40;99.90
47162;DHT22;32921;53.256;8.198;2022-12-18T09:01:13;-5.30;99.90
47162;DHT22;32921;53.256;8.198;2022-12-18T09:03:39;-5.20;99.90
47162;DHT22;32921;53.256;8.198;2022-12-18T09:06:05;-5.20;99.90
47162;DHT22;32921;53.256;8.198;2022-12-18T09:08:31;-5.00;99.90
47162;DHT22;32921;53.256;8.198;2022-12-18T09:10:57;-5.00;99.90
47162;DHT22;32921;53.256;8.198;2022-12-18T09:13:22;-4.90;99.90
47162;DHT22;32921;53.256;8.198;2022-12-18T09:15:51;-4.90;99.90
47162;DHT22;32921;53.256;8.198;2022-12-18T09:18:18;-4.90;99.90
47162;DHT22;32921;53.256;8.198;2022-12-18T09:20:44;-4.80;99.90
47162;DHT22;32921;53.256;8.198;2022-12-18T09:23:11;-4.90;99.90
47162;DHT22;32921;53.256;8.198;2022-12-18T09:25:37;-4.80;99.90
47162;DHT22;32921;53.256;8.198;2022-12-18T09:28:13;-4.70;99.90
47162;DHT22;32921;53.256;8.198;2022-12-18T09:30:42;-4.70;99.90
47162;DHT22;32921;53.256;8.198;2022-12-18T09:33:07;-4.60;99.90
47162;DHT22;32921;53.256;8.198;2022-12-18T09:35:36;-4.50;99.90
47162;DHT22;32921;53.256;8.198;2022-12-18T09:38:02;-4.60;99.90
47162;DHT22;32921;53.256;8.198;2022-12-18T09:40:34;-4.50;99.90
47162;DHT22;32921;53.256;8.198;2022-12-18T09:43:03;-4.60;99.90
47162;DHT22;32921;53.256;8.198;2022-12-18T09:45:40;-4.60;99.90
47162;DHT22;32921;53.256;8.198;2022-12-18T09:48:35;-4.60;99.90
47162;DHT22;32921;53.256;8.198;2022-12-18T09:51:04;-4.60;99.90
47162;DHT22;32921;53.256;8.198;2022-12-18T09:53:35;-4.40;99.90
47162;DHT22;32921;53.256;8.198;2022-12-18T09:56:04;-4.40;99.90
47162;DHT22;32921;53.256;8.198;2022-12-18T09:58:43;-4.40;99.90
47162;DHT22;32921;53.256;8.198;2022-12-18T10:01:15;-4.30;99.90
47162;DHT22;32921;53.256;8.198;2022-12-18T10:03:41;-4.20;99.90
47162;DHT22;32921;53.256;8.198;2022-12-18T10:09:01;-4.00;99.90
47162;DHT22;32921;53.256;8.198;2022-12-18T10:14:23;-4.00;99.90
47162;DHT22;32921;53.256;8.198;2022-12-18T10:22:17;-4.00;99.90
47162;DHT22;32921;53.256;8.198;2022-12-18T10:25:03;-4.00;99.90
47162;DHT22;32921;53.256;8.198;2022-12-18T10:27:31;-4.00;99.90
47162;DHT22;32921;53.256;8.198;2022-12-18T10:29:57;-4.00;99.90
47162;DHT22;32921;53.256;8.198;2022-12-18T10:32:28;-4.10;99.90
47162;DHT22;32921;53.256;8.198;2022-12-18T10:34:56;-4.00;99.90
47162;DHT22;32921;53.256;8.198;2022-12-18T10:37:25;-4.00;99.90
47162;DHT22;32921;53.256;8.198;2022-12-18T10:40:11;-4.00;99.90
47162;DHT22;32921;53.256;8.198;2022-12-18T10:42:38;-3.90;99.90
47162;DHT22;32921;53.256;8.198;2022-12-18T10:45:15;-3.70;99.90
47162;DHT22;32921;53.256;8.198;2022-12-18T10:47:43;-3.60;99.90
47162;DHT22;32921;53.256;8.198;2022-12-18T10:50:38;-3.80;99.90
47162;DHT22;32921;53.256;8.198;2022-12-18T10:53:05;-3.90;99.90
47162;DHT22;32921;53.256;8.198;2022-12-18T10:55:44;-3.80;99.90
47162;DHT22;32921;53.256;8.198;2022-12-18T10:58:30;-3.80;99.90
47162;DHT22;32921;53.256;8.198;2022-12-18T11:01:11;-3.60;99.90
47162;DHT22;32921;53.256;8.198;2022-12-18T11:03:39;-3.50;99.90
47162;DHT22;32921;53.256;8.198;2022-12-18T11:06:12;-3.40;99.90
47162;DHT22;32921;53.256;8.198;2022-12-18T11:08:38;-3.30;99.90
47162;DHT22;32921;53.256;8.198;2022-12-18T11:11:14;-3.20;99.90
47162;DHT22;32921;53.256;8.198;2022-12-18T11:13:47;-3.10;99.90
47162;DHT22;32921;53.256;8.198;2022-12-18T11:16:19;-2.90;99.90
47162;DHT22;32921;53.256;8.198;2022-12-18T11:18:45;-3.00;99.90
47162;DHT22;32921;53.256;8.198;2022-12-18T11:21:12;-2.90;99.90
47162;DHT22;32921;53.256;8.198;2022-12-18T11:23:47;-2.80;99.90
47162;DHT22;32921;53.256;8.198;2022-12-18T11:26:14;-2.60;99.90
47162;DHT22;32921;53.256;8.198;2022-12-18T11:28:53;-2.30;99.90
47162;DHT22;32921;53.256;8.198;2022-12-18T11:31:32;-2.30;99.90
47162;DHT22;32921;53.256;8.198;2022-12-18T11:34:09;-2.30;99.90
47162;DHT22;32921;53.256;8.198;2022-12-18T11:36:40;-2.20;99.90
47162;DHT22;32921;53.256;8.198;2022-12-18T11:39:45;-2.00;99.90
47162;DHT22;32921;53.256;8.198;2022-12-18T11:42:34;-2.10;99.90
47162;DHT22;32921;53.256;8.198;2022-12-18T11:50:49;-2.10;99.90
47162;DHT22;32921;53.256;8.198;2022-12-18T11:53:16;-2.00;99.90
47162;DHT22;32921;53.256;8.198;2022-12-18T11:56:02;-2.10;99.90
47162;DHT22;32921;53.256;8.198;2022-12-18T11:58:55;-2.20;99.90
47162;DHT22;32921;53.256;8.198;2022-12-18T12:07:28;-2.40;99.90
47162;DHT22;32921;53.256;8.198;2022-12-18T12:13:07;-2.30;99.90
47162;DHT22;32921;53.256;8.198;2022-12-18T12:16:27;-2.40;99.90
47162;DHT22;32921;53.256;8.198;2022-12-18T12:18:36;-2.30;99.90
47162;DHT22;32921;53.256;8.198;2022-12-18T12:35:31;-2.60;99.90
47162;DHT22;32921;53.256;8.198;2022-12-18T12:38:11;-2.50;99.90
47162;DHT22;32921;53.256;8.198;2022-12-18T12:40:43;-2.30;99.90
47162;DHT22;32921;53.256;8.198;2022-12-18T12:46:10;-2.40;99.90
47162;DHT22;32921;53.256;8.198;2022-12-18T12:51:23;-2.30;99.90
47162;DHT22;32921;53.256;8.198;2022-12-18T12:53:50;-2.40;99.90
47162;DHT22;32921;53.256;8.198;2022-12-18T12:56:19;-2.40;99.90
47162;DHT22;32921;53.256;8.198;2022-12-18T12:59:06;-2.40;99.90
47162;DHT22;32921;53.256;8.198;2022-12-18T13:01:59;-2.50;99.90
47162;DHT22;32921;53.256;8.198;2022-12-18T13:04:45;-2.50;99.90
47162;DHT22;32921;53.256;8.198;2022-12-18T13:07:22;-2.40;99.90
47162;DHT22;32921;53.256;8.198;2022-12-18T13:12:37;-2.30;99.90
47162;DHT22;32921;53.256;8.198;2022-12-18T13:15:45;-2.20;99.90
47162;DHT22;32921;53.256;8.198;2022-12-18T13:18:14;-2.30;99.90
47162;DHT22;32921;53.256;8.198;2022-12-18T13:31:01;-2.50;99.90
47162;DHT22;32921;53.256;8.198;2022-12-18T13:41:40;-2.60;99.90
47162;DHT22;32921;53.256;8.198;2022-12-18T13:44:33;-2.60;99.90
47162;DHT22;32921;53.256;8.198;2022-12-18T13:47:00;-2.80;99.90
47162;DHT22;32921;53.256;8.198;2022-12-18T13:49:39;-2.80;99.90
47162;DHT22;32921;53.256;8.198;2022-12-18T13:52:24;-2.80;99.90
47162;DHT22;32921;53.256;8.198;2022-12-18T13:54:55;-2.80;99.90
47162;DHT22;32921;53.256;8.198;2022-12-18T13:57:31;-2.80;99.90
47162;DHT22;32921;53.256;8.198;2022-12-18T13:59:58;-2.80;99.90
47162;DHT22;32921;53.256;8.198;2022-12-18T14:02:26;-2.80;99.90
47162;DHT22;32921;53.256;8.198;2022-12-18T14:04:52;-2.80;99.90
47162;DHT22;32921;53.256;8.198;2022-12-18T14:07:24;-2.80;99.90
47162;DHT22;32921;53.256;8.198;2022-12-18T14:09:55;-2.80;99.90
47162;DHT22;32921;53.256;8.198;2022-12-18T14:12:27;-2.80;99.90
47162;DHT22;32921;53.256;8.198;2022-12-18T14:15:31;-2.80;99.90
47162;DHT22;32921;53.256;8.198;2022-12-18T14:20:23;-2.90;99.90
47162;DHT22;32921;53.256;8.198;2022-12-18T14:22:50;-2.90;99.90
47162;DHT22;32921;53.256;8.198;2022-12-18T14:25:24;-2.90;99.90
47162;DHT22;32921;53.256;8.198;2022-12-18T14:33:00;-3.00;99.90
47162;DHT22;32921;53.256;8.198;2022-12-18T14:35:26;-3.10;99.90
47162;DHT22;32921;53.256;8.198;2022-12-18T14:37:52;-3.10;99.90
47162;DHT22;32921;53.256;8.198;2022-12-18T14:40:18;-3.10;99.90
47162;DHT22;32921;53.256;8.198;2022-12-18T14:42:43;-3.10;99.90
47162;DHT22;32921;53.256;8.198;2022-12-18T14:47:59;-3.20;99.90
47162;DHT22;32921;53.256;8.198;2022-12-18T14:50:25;-3.20;99.90
47162;DHT22;32921;53.256;8.198;2022-12-18T14:52:51;-3.30;99.90
47162;DHT22;32921;53.256;8.198;2022-12-18T14:55:19;-3.30;99.90
47162;DHT22;32921;53.256;8.198;2022-12-18T14:57:50;-3.30;99.90
47162;DHT22;32921;53.256;8.198;2022-12-18T15:00:19;-3.30;99.90
47162;DHT22;32921;53.256;8.198;2022-12-18T15:02:54;-3.30;99.90
47162;DHT22;32921;53.256;8.198;2022-12-18T15:05:28;-3.30;99.90
47162;DHT22;32921;53.256;8.198;2022-12-18T15:07:57;-3.30;99.90
47162;DHT22;32921;53.256;8.198;2022-12-18T15:10:29;-3.20;99.90
47162;DHT22;32921;53.256;8.198;2022-12-18T15:20:43;-3.20;99.90
47162;DHT22;32921;53.256;8.198;2022-12-18T15:23:19;-3.20;99.90
47162;DHT22;32921;53.256;8.198;2022-12-18T15:25:46;-3.10;99.90
47162;DHT22;32921;53.256;8.198;2022-12-18T15:28:35;-3.20;99.90
47162;DHT22;32921;53.256;8.198;2022-12-18T15:36:13;-3.10;99.90
47162;DHT22;32921;53.256;8.198;2022-12-18T15:38:39;-3.20;99.90
47162;DHT22;32921;53.256;8.198;2022-12-18T15:41:05;-3.20;99.90
47162;DHT22;32921;53.256;8.198;2022-12-18T15:43:31;-3.10;99.90
47162;DHT22;32921;53.256;8.198;2022-12-18T15:46:01;-3.10;99.90
47162;DHT22;32921;53.256;8.198;2022-12-18T15:48:27;-3.00;99.90
47162;DHT22;32921;53.256;8.198;2022-12-18T15:50:54;-3.00;99.90
47162;DHT22;32921;53.256;8.198;2022-12-18T15:53:22;-3.00;99.90
47162;DHT22;32921;53.256;8.198;2022-12-18T15:55:48;-2.90;99.90
47162;DHT22;32921;53.256;8.198;2022-12-18T15:58:32;-2.90;99.90
47162;DHT22;32921;53.256;8.198;2022-12-18T16:00:59;-2.90;99.90
47162;DHT22;32921;53.256;8.198;2022-12-18T16:03:25;-2.80;99.90
47162;DHT22;32921;53.256;8.198;2022-12-18T16:05:51;-2.80;99.90
47162;DHT22;32921;53.256;8.198;2022-12-18T16:08:16;-2.80;99.90
47162;DHT22;32921;53.256;8.198;2022-12-18T16:10:42;-2.80;99.90
47162;DHT22;32921;53.256;8.198;2022-12-18T16:13:12;-2.80;99.90
47162;DHT22;32921;53.256;8.198;2022-12-18T16:15:39;-2.80;99.90
47162;DHT22;32921;53.256;8.198;2022-12-18T16:18:05;-2.80;99.90
47162;DHT22;32921;53.256;8.198;2022-12-18T16:20:30;-2.80;99.90
47162;DHT22;32921;53.256;8.198;2022-12-18T16:22:56;-2.70;99.90
47162;DHT22;32921;53.256;8.198;2022-12-18T16:25:28;-2.70;99.90
47162;DHT22;32921;53.256;8.198;2022-12-18T16:27:55;-2.70;99.90
47162;DHT22;32921;53.256;8.198;2022-12-18T16:30:23;-2.70;99.90
47162;DHT22;32921;53.256;8.198;2022-12-18T16:32:49;-2.60;99.90
47162;DHT22;32921;53.256;8.198;2022-12-18T16:35:16;-2.60;99.90
47162;DHT22;32921;53.256;8.198;2022-12-18T16:37:42;-2.60;99.90
47162;DHT22;32921;53.256;8.198;2022-12-18T16:40:10;-2.60;99.90
47162;DHT22;32921;53.256;8.198;2022-12-18T16:42:38;-2.60;99.90
47162;DHT22;32921;53.256;8.198;2022-12-18T16:45:06;-2.60;99.90
47162;DHT22;32921;53.256;8.198;2022-12-18T16:47:32;-2.60;99.90
47162;DHT22;32921;53.256;8.198;2022-12-18T16:49:58;-2.60;99.90
47162;DHT22;32921;53.256;8.198;2022-12-18T16:52:24;-2.50;99.90
47162;DHT22;32921;53.256;8.198;2022-12-18T16:54:49;-2.50;99.90
47162;DHT22;32921;53.256;8.198;2022-12-18T16:57:17;-2.50;99.90
47162;DHT22;32921;53.256;8.198;2022-12-18T16:59:43;-2.40;99.90
47162;DHT22;32921;53.256;8.198;2022-12-18T17:04:40;-2.40;99.90
47162;DHT22;32921;53.256;8.198;2022-12-18T17:07:06;-2.40;99.90
47162;DHT22;32921;53.256;8.198;2022-12-18T17:09:32;-2.40;99.90
47162;DHT22;32921;53.256;8.198;2022-12-18T17:11:57;-2.40;99.90
47162;DHT22;32921;53.256;8.198;2022-12-18T17:14:24;-2.30;99.90
47162;DHT22;32921;53.256;8.198;2022-12-18T17:16:51;-2.40;99.90
47162;DHT22;32921;53.256;8.198;2022-12-18T17:19:17;-2.30;99.90
47162;DHT22;32921;53.256;8.198;2022-12-18T17:21:44;-2.30;99.90
47162;DHT22;32921;53.256;8.198;2022-12-18T17:24:11;-2.30;99.90
47162;DHT22;32921;53.256;8.198;2022-12-18T17:26:37;-2.30;99.90
47162;DHT22;32921;53.256;8.198;2022-12-18T17:29:03;-2.20;99.90